createdAt,value
2023-01-27T00:01:18.004Z,101441.19
2023-01-27T00:04:49.337Z,101436.73
2023-01-27T00:08:38.593Z,101438.17
2023-01-27T00:12:18.599Z,101427.73
2023-01-27T00:16:07.726Z,101429.21
2023-01-27T00:19:47.526Z,101428.28
2023-01-27T00:23:16.045Z,101419.14
2023-01-27T00:27:04.368Z,101422.48
2023-01-27T00:30:53.733Z,101418.30
2023-01-27T00:34:42.245Z,101423.89
2023-01-27T00:38:12.671Z,101429.59
2023-01-27T00:41:36.356Z,101425.66
2023-01-27T00:45:08.808Z,101426.27
2023-01-27T00:48:56.792Z,101430.51
2023-01-27T00:52:46.183Z,101434.73
2023-01-27T00:56:26.775Z,101431.73
2023-01-27T01:00:09.837Z,101434.16
2023-01-27T01:03:58.844Z,101431.38
2023-01-27T01:07:40.676Z,101435.10
2023-01-27T01:11:29.949Z,101438.55
2023-01-27T01:15:10.122Z,101438.11
2023-01-27T01:18:51.958Z,101443.20
2023-01-27T01:22:14.631Z,101444.92
2023-01-27T01:25:56.179Z,101448.19
2023-01-27T01:28:59.847Z,101446.95
2023-01-27T01:32:40.099Z,101445.88
2023-01-27T01:36:29.649Z,101451.36
2023-01-27T01:40:18.568Z,101450.08
2023-01-27T01:44:08.136Z,101450.59
2023-01-27T01:47:52.383Z,101454.43
2023-01-27T01:51:26.337Z,101449.55
2023-01-27T01:55:03.853Z,101452.54
2023-01-27T01:58:33.774Z,101451.48
2023-01-27T02:02:16.632Z,101453.73
2023-01-27T02:06:11.591Z,101450.13
2023-01-27T02:09:46.924Z,101454.90
2023-01-27T02:13:13.296Z,101453.68
2023-01-27T02:16:55.258Z,101454.27
2023-01-27T02:20:50.367Z,101455.33
2023-01-27T02:24:41.291Z,101458.09
2023-01-27T02:28:05.220Z,101453.84
2023-01-27T02:31:41.900Z,101453.31
2023-01-27T02:35:22.495Z,101457.84
2023-01-27T02:39:04.319Z,101460.95
2023-01-27T02:42:45.827Z,101469.10
2023-01-27T02:46:19.673Z,101470.54
2023-01-27T02:50:01.297Z,101474.11
2023-01-27T02:53:44.955Z,101474.67
2023-01-27T02:56:57.572Z,101481.32
2023-01-27T03:00:46.852Z,101484.97
2023-01-27T03:04:18.746Z,101483.27
2023-01-27T03:08:09.373Z,101482.67
2023-01-27T03:11:57.193Z,101479.59
2023-01-27T03:15:28.758Z,101474.32
2023-01-27T03:19:18.079Z,101479.96
2023-01-27T03:22:39.477Z,101479.26
2023-01-27T03:26:28.738Z,101482.30
2023-01-27T03:30:17.741Z,101481.59
2023-01-27T03:33:20.913Z,101480.09
2023-01-27T03:36:36.447Z,101476.17
2023-01-27T03:40:09.115Z,101476.55
2023-01-27T03:43:56.034Z,101473.10
2023-01-27T03:47:45.270Z,101475.21
2023-01-27T03:51:09.523Z,101476.53
2023-01-27T03:54:43.955Z,101480.55
2023-01-27T03:58:06.856Z,101479.78
2023-01-27T04:01:25.917Z,101477.17
2023-01-27T04:05:03.709Z,101474.31
2023-01-27T04:08:45.166Z,101483.09
2023-01-27T04:12:23.789Z,101482.59
2023-01-27T04:15:53.779Z,101486.63
2023-01-27T04:19:32.335Z,101488.80
2023-01-27T04:23:21.654Z,101491.95
2023-01-27T04:27:06.710Z,101489.48
2023-01-27T04:30:37.576Z,101493.52
2023-01-27T04:34:01.325Z,101493.02
2023-01-27T04:37:50.284Z,101491.79
2023-01-27T04:41:18.222Z,101494.73
2023-01-27T04:44:58.250Z,101501.30
2023-01-27T04:48:34.853Z,101500.66
2023-01-27T04:52:18.600Z,101498.15
2023-01-27T04:56:06.197Z,101504.44
2023-01-27T04:59:36.515Z,101507.90
2023-01-27T05:03:24.263Z,101507.99
2023-01-27T05:06:52.011Z,101512.70
2023-01-27T05:10:32.476Z,101510.02
2023-01-27T05:14:14.747Z,101511.42
2023-01-27T05:17:49.347Z,101517.30
2023-01-27T05:21:39.344Z,101520.30
2023-01-27T05:25:00.441Z,101521.44
2023-01-27T05:28:39.924Z,101525.27
2023-01-27T05:32:22.016Z,101529.27
2023-01-27T05:36:09.655Z,101534.11
2023-01-27T05:39:54.184Z,101535.09
2023-01-27T05:43:27.026Z,101535.45
2023-01-27T05:47:10.687Z,101533.45
2023-01-27T05:50:59.906Z,101535.66
2023-01-27T05:54:43.918Z,101537.23
2023-01-27T05:58:09.556Z,101539.38
2023-01-27T06:01:51.572Z,101536.20
2023-01-27T06:05:41.129Z,101539.52
2023-01-27T06:09:30.308Z,101542.38
2023-01-27T06:13:12.068Z,101542.19
2023-01-27T06:16:53.591Z,101537.70
2023-01-27T06:20:24.846Z,101544.11
2023-01-27T06:23:50.235Z,101545.76
2023-01-27T06:27:39.301Z,101550.26
2023-01-27T06:31:20.953Z,101554.38
2023-01-27T06:35:10.184Z,101561.80
2023-01-27T06:38:59.554Z,101563.86
2023-01-27T06:42:39.126Z,101565.25
2023-01-27T06:46:11.167Z,101566.70
2023-01-27T06:49:53.374Z,101563.46
2023-01-27T06:53:42.117Z,101559.86
2023-01-27T06:57:31.651Z,101559.05
2023-01-27T07:00:54.380Z,101560.44
2023-01-27T07:04:42.355Z,101562.89
2023-01-27T07:08:25.910Z,101563.73
2023-01-27T07:12:09.219Z,101563.84
2023-01-27T07:19:58.438Z,101563.91
2023-01-27T07:23:30.759Z,101570.45
2023-01-27T07:27:11.254Z,101574.75
2023-01-27T07:30:38.519Z,101577.21
2023-01-27T07:33:42.401Z,101580.74
2023-01-27T07:37:20.225Z,101579.36
2023-01-27T07:40:59.902Z,101583.98
2023-01-27T07:44:39.877Z,101585.14
2023-01-27T07:48:22.620Z,101585.86
2023-01-27T07:52:11.363Z,101592.29
2023-01-27T07:56:00.565Z,101599.45
2023-01-27T07:59:49.755Z,101607.73
2023-01-27T08:03:38.853Z,101610.30
2023-01-27T08:07:19.577Z,101609.81
2023-01-27T08:11:09.545Z,101613.91
2023-01-27T08:14:58.684Z,101621.27
2023-01-27T08:18:41.937Z,101624.52
2023-01-27T08:22:31.046Z,101629.73
2023-01-27T08:26:19.531Z,101623.11
2023-01-27T08:29:56.512Z,101626.00
2023-01-27T08:33:31.755Z,101630.45
2023-01-27T08:37:04.827Z,101625.89
2023-01-27T08:40:44.467Z,101633.85
2023-01-27T08:44:15.668Z,101636.17
2023-01-27T08:47:57.133Z,101644.36
2023-01-27T08:51:46.391Z,101647.30
2023-01-27T08:55:34.944Z,101651.04
2023-01-27T08:59:02.381Z,101659.22
2023-01-27T09:02:46.305Z,101655.35
2023-01-27T09:06:35.398Z,101653.19
2023-01-27T09:10:27.961Z,101654.70
2023-01-27T09:14:17.150Z,101654.04
2023-01-27T09:17:58.929Z,101659.86
2023-01-27T09:21:48.620Z,101660.83
2023-01-27T09:25:38.985Z,101661.52
2023-01-27T09:29:05.587Z,101670.92
2023-01-27T09:32:49.227Z,101665.67
2023-01-27T09:36:30.008Z,101661.48
2023-01-27T09:40:11.521Z,101665.38
2023-01-27T09:43:49.798Z,101667.94
2023-01-27T09:47:43.294Z,101667.73
2023-01-27T09:51:15.990Z,101671.89
2023-01-27T09:55:10.819Z,101668.35
2023-01-27T09:59:18.009Z,101666.01
2023-01-27T10:03:22.954Z,101667.67
2023-01-27T10:07:27.397Z,101668.35
2023-01-27T10:11:29.749Z,101670.51
2023-01-27T10:15:33.972Z,101665.80
2023-01-27T10:19:42.378Z,101663.28
2023-01-27T10:23:31.613Z,101669.30
2023-01-27T10:27:28.148Z,101675.89
2023-01-27T10:31:07.187Z,101674.43
2023-01-27T10:35:05.392Z,101675.55
2023-01-27T10:39:15.619Z,101674.08
2023-01-27T10:43:38.152Z,101678.83
2023-01-27T10:47:28.436Z,101681.23
2023-01-27T10:51:20.184Z,101686.58
2023-01-27T10:55:15.430Z,101681.55
2023-01-27T11:23:40.001Z,101687.70
2023-01-27T11:28:08.183Z,101685.16
2023-01-27T11:35:41.313Z,101687.68
2023-01-27T11:40:11.007Z,101695.23
2023-01-27T11:44:37.244Z,101693.75
2023-01-27T11:49:08.512Z,101696.55
2023-01-27T11:53:38.674Z,101703.14
2023-01-27T11:58:00.217Z,101695.68
2023-01-27T12:02:50.538Z,101696.30
2023-01-27T12:07:32.312Z,101694.01
2023-01-27T12:16:28.987Z,101698.73
2023-01-27T12:21:04.344Z,101690.62
2023-01-27T12:25:35.525Z,101693.02
2023-01-27T12:30:14.160Z,101695.79
2023-01-27T12:34:44.448Z,101695.58
2023-01-27T12:39:19.718Z,101693.99
2023-01-27T12:43:51.925Z,101702.66
2023-01-27T12:48:23.461Z,101704.79
2023-01-27T12:52:56.908Z,101701.42
2023-01-27T12:57:27.872Z,101700.83
2023-01-27T13:06:58.379Z,101702.41
2023-01-27T13:11:03.972Z,101702.83
2023-01-27T13:14:51.750Z,101708.59
2023-01-27T13:18:39.545Z,101702.25
2023-01-27T13:22:30.223Z,101705.35
2023-01-27T13:26:27.333Z,101710.30
2023-01-27T13:30:03.704Z,101712.17
2023-01-27T13:33:33.564Z,101712.96
2023-01-27T13:37:14.100Z,101710.54
2023-01-27T13:41:02.556Z,101718.23
2023-01-27T13:44:54.675Z,101714.64
2023-01-27T13:48:45.586Z,101725.38
2023-01-27T13:52:33.302Z,101722.14
2023-01-27T13:56:30.360Z,101728.70
2023-01-27T14:00:26.871Z,101717.69
2023-01-27T14:04:21.662Z,101714.73
2023-01-27T14:08:15.159Z,101717.58
2023-01-27T14:12:06.968Z,101710.88
2023-01-27T14:16:00.941Z,101723.86
2023-01-27T14:20:00.827Z,101718.83
2023-01-27T14:23:57.607Z,101719.23
2023-01-27T14:27:40.216Z,101718.22
2023-01-27T14:31:33.548Z,101720.06
2023-01-27T14:40:04.776Z,101727.17
2023-01-27T14:43:58.742Z,101725.98
2023-01-27T14:48:06.056Z,101728.10
2023-01-27T14:51:48.780Z,101734.88
2023-01-27T14:55:43.086Z,101734.61
2023-01-27T14:59:49.059Z,101739.20
2023-01-27T15:03:42.844Z,101744.55
2023-01-27T15:07:28.383Z,101746.83
2023-01-27T15:11:20.475Z,101753.62
2023-01-27T15:15:08.124Z,101755.29
2023-01-27T15:18:52.990Z,101768.84
2023-01-27T15:23:02.253Z,101763.08
2023-01-27T15:26:51.950Z,101767.02
2023-01-27T15:30:49.344Z,101762.17
2023-01-27T15:34:30.603Z,101768.06
2023-01-27T15:38:36.917Z,101772.08
2023-01-27T15:42:16.339Z,101774.52
2023-01-27T15:46:19.582Z,101773.22
2023-01-27T15:49:39.536Z,101773.44
2023-01-27T15:53:41.815Z,101774.39
2023-01-27T15:57:16.254Z,101778.29
2023-01-27T16:01:01.477Z,101783.41
2023-01-27T16:04:49.701Z,101781.49
2023-01-27T16:08:15.540Z,101786.40
2023-01-27T16:12:02.988Z,101780.10
2023-01-27T16:15:49.848Z,101786.36
2023-01-27T16:19:39.660Z,101785.29
2023-01-27T16:22:59.573Z,101791.41
2023-01-27T16:26:37.457Z,101788.94
2023-01-27T16:30:27.262Z,101792.89
2023-01-27T16:34:24.996Z,101794.53
2023-01-27T16:38:23.822Z,101801.51
2023-01-27T16:42:15.329Z,101801.80
2023-01-27T16:45:59.023Z,101807.72
2023-01-27T16:49:56.841Z,101807.27
2023-01-27T16:53:40.149Z,101814.77
2023-01-27T16:57:34.136Z,101810.48
2023-01-27T17:01:20.293Z,101820.16
2023-01-27T17:04:58.860Z,101824.97
2023-01-27T17:08:44.116Z,101823.91
2023-01-27T17:12:15.996Z,101827.91
2023-01-27T17:15:55.112Z,101825.59
2023-01-27T17:18:56.787Z,101824.25
2023-01-27T17:22:23.433Z,101834.08
2023-01-27T17:25:55.916Z,101833.29
2023-01-27T17:29:24.683Z,101841.30
2023-01-27T17:33:14.228Z,101839.10
2023-01-27T17:36:40.647Z,101838.33
2023-01-27T17:39:49.755Z,101845.20
2023-01-27T17:43:18.990Z,101847.31
2023-01-27T17:46:57.377Z,101842.77
2023-01-27T17:50:13.912Z,101846.35
2023-01-27T17:53:51.020Z,101854.33
2023-01-27T17:57:32.471Z,101870.52
2023-01-27T18:01:25.720Z,101859.76
2023-01-27T18:05:02.419Z,101860.77
2023-01-27T18:08:22.899Z,101870.15
2023-01-27T18:11:59.022Z,101874.26
2023-01-27T18:15:10.306Z,101871.52
2023-01-27T18:18:19.255Z,101871.42
2023-01-27T18:21:34.970Z,101885.23
2023-01-27T18:24:38.518Z,101886.56
2023-01-27T18:27:53.707Z,101887.73
2023-01-27T18:30:56.842Z,101889.44
2023-01-27T18:33:50.881Z,101890.83
2023-01-27T18:37:24.287Z,101895.41
2023-01-27T18:41:00.634Z,101892.94
2023-01-27T18:43:53.363Z,101902.23
2023-01-27T18:47:12.194Z,101899.96
2023-01-27T18:50:38.589Z,101903.33
2023-01-27T18:54:05.851Z,101906.98
2023-01-27T18:57:31.763Z,101912.69
2023-01-27T19:00:37.590Z,101913.45
2023-01-27T19:04:11.091Z,101919.23
2023-01-27T19:07:33.923Z,101918.84
2023-01-27T19:10:52.959Z,101924.39
2023-01-27T19:14:04.487Z,101925.79
2023-01-27T19:17:21.440Z,101930.48
2023-01-27T19:20:35.372Z,101938.61
2023-01-27T19:23:34.831Z,101940.38
2023-01-27T19:26:56.615Z,101930.96
2023-01-27T19:29:59.557Z,101931.05
2023-01-27T19:32:48.530Z,101936.83
2023-01-27T19:36:13.188Z,101934.71
2023-01-27T19:40:13.583Z,101935.54
2023-01-27T19:43:52.908Z,101937.87
2023-01-27T19:47:43.887Z,101936.27
2023-01-27T19:51:16.804Z,101944.44
2023-01-27T19:54:49.271Z,101944.38
2023-01-27T19:57:58.497Z,101947.75
2023-01-27T20:00:59.969Z,101939.09
2023-01-27T20:04:50.030Z,101945.88
2023-01-27T20:08:24.106Z,101946.70
2023-01-27T20:12:16.190Z,101958.54
2023-01-27T20:15:55.608Z,101953.37
2023-01-27T20:19:23.247Z,101950.92
2023-01-27T20:22:14.569Z,101948.66
2023-01-27T20:26:00.331Z,101955.59
2023-01-27T20:29:35.773Z,101950.35
2023-01-27T20:32:56.220Z,101956.18
2023-01-27T20:36:24.306Z,101957.38
2023-01-27T20:39:31.252Z,101957.41
2023-01-27T20:42:50.906Z,101960.93
2023-01-27T20:46:26.721Z,101961.28
2023-01-27T20:49:45.045Z,101955.95
2023-01-27T20:53:29.761Z,101958.29
2023-01-27T20:57:17.905Z,101955.70
2023-01-27T21:00:27.923Z,101955.20
2023-01-27T21:04:00.828Z,101955.64
2023-01-27T21:07:40.305Z,101957.98
2023-01-27T21:11:30.296Z,101958.89
2023-01-27T21:15:16.997Z,101960.80
2023-01-27T21:19:02.440Z,101960.30
2023-01-27T21:22:48.174Z,101965.40
2023-01-27T21:26:36.822Z,101962.75
2023-01-27T21:30:18.778Z,101961.86
2023-01-27T21:34:10.060Z,101952.17
2023-01-27T21:37:46.725Z,101968.91
2023-01-27T21:41:46.966Z,101964.17
2023-01-27T21:45:32.922Z,101959.96
2023-01-27T21:49:05.552Z,101962.21
2023-01-27T21:52:34.551Z,101964.14
2023-01-27T21:56:13.436Z,101956.48
2023-01-27T21:59:57.921Z,101963.25
2023-01-27T22:03:46.185Z,101959.34
2023-01-27T22:07:34.581Z,101953.87
2023-01-27T22:11:21.315Z,101951.60
2023-01-27T22:15:11.903Z,101944.27
2023-01-27T22:19:03.671Z,101955.58
2023-01-27T22:22:51.828Z,101958.98
2023-01-27T22:26:43.098Z,101952.52
2023-01-27T22:30:31.485Z,101945.52
2023-01-27T22:34:19.506Z,101958.80
2023-01-27T22:38:07.395Z,101953.71
2023-01-27T22:41:55.593Z,101945.36
2023-01-27T22:45:43.763Z,101962.90
2023-01-27T22:49:32.793Z,101950.06
2023-01-27T22:53:21.502Z,101954.33
2023-01-27T22:57:09.573Z,101952.65
2023-01-27T23:00:59.288Z,101958.73
2023-01-27T23:04:47.339Z,101956.67
2023-01-27T23:08:40.500Z,101957.77
2023-01-27T23:12:28.518Z,101955.92
2023-01-27T23:16:16.274Z,101954.41
2023-01-27T23:19:58.500Z,101955.48
2023-01-27T23:23:36.075Z,101951.69
2023-01-27T23:27:23.074Z,101951.88
2023-01-27T23:31:04.279Z,101952.90
2023-01-27T23:34:52.236Z,101951.48
2023-01-27T23:38:39.596Z,101932.66
2023-01-27T23:42:27.559Z,101936.13
2023-01-27T23:46:16.470Z,101936.86
2023-01-27T23:50:05.609Z,101937.80
2023-01-27T23:53:53.444Z,101940.16
2023-01-27T23:57:41.067Z,101943.58
